X  Luk Metar data     EDDK Cologne Bonn Airport
Temperatur
9°C Temperatur
4°C Duggpunkt
71% Fugtighed



Vind
5 MPT
8 KM/T
2 M/S
4 KNOB



190°
S
Nuværende forhold

Overkyet Overkyet
Tryk 1024.04 (hPa) - 30.24 (inHg)
Sigt 6 (mil) - 9.7 (km)
Lufthavn
Lufthavnskode EDDK

Lokation: Cologne Bonn Airport
Afstand: 56 (mi)

Metar:
EDDK 210020Z AUTO 19004KT 160V220 9999 OVC022 09/04 Q1024 NOSIG

Tid: 2024-02-21 01:20 CET